createdAt,value
2023-02-24T00:01:43.097Z,13.60
2023-02-24T00:04:12.405Z,15.60
2023-02-24T00:06:43.737Z,14.15
2023-02-24T00:09:18.020Z,12.88
2023-02-24T00:12:08.865Z,12.20
2023-02-24T00:14:38.631Z,8.57
2023-02-24T00:17:09.481Z,10.40
2023-02-24T00:19:36.862Z,15.15
2023-02-24T00:22:05.958Z,9.75
2023-02-24T00:24:33.078Z,11.70
2023-02-24T00:27:01.587Z,14.32
2023-02-24T00:29:29.299Z,12.10
2023-02-24T00:32:06.507Z,11.82
2023-02-24T00:34:36.391Z,15.38
2023-02-24T00:37:03.595Z,11.60
2023-02-24T00:39:32.725Z,12.98
2023-02-24T00:42:05.973Z,11.35
2023-02-24T00:44:34.411Z,11.38
2023-02-24T00:47:02.456Z,14.15
2023-02-24T00:49:29.417Z,12.15
2023-02-24T00:51:56.048Z,10.68
2023-02-24T00:54:27.043Z,13.23
2023-02-24T00:56:54.559Z,11.40
2023-02-24T00:59:23.830Z,13.20
2023-02-24T01:01:51.585Z,10.10
2023-02-24T01:04:19.967Z,10.70
2023-02-24T01:14:23.775Z,14.13
2023-02-24T01:16:50.628Z,9.93
2023-02-24T01:19:22.056Z,12.40
2023-02-24T01:21:53.090Z,8.32
2023-02-24T01:24:19.494Z,13.23
2023-02-24T01:26:45.904Z,11.63
2023-02-24T01:29:12.328Z,13.25
2023-02-24T01:31:42.569Z,11.82
2023-02-24T01:34:10.853Z,14.80
2023-02-24T01:36:39.118Z,8.88
2023-02-24T01:39:07.435Z,13.77
2023-02-24T01:41:33.850Z,10.80
2023-02-24T01:44:17.345Z,10.20
2023-02-24T01:46:46.869Z,11.93
2023-02-24T01:49:13.224Z,11.57
2023-02-24T01:51:45.423Z,10.07
2023-02-24T01:54:15.542Z,11.38
2023-02-24T01:56:43.005Z,8.45
2023-02-24T01:59:10.354Z,9.02
2023-02-24T02:01:41.020Z,10.88
2023-02-24T02:04:17.069Z,10.20
2023-02-24T02:06:45.324Z,8.35
2023-02-24T02:09:15.220Z,12.75
2023-02-24T02:11:43.004Z,13.18
2023-02-24T02:14:09.988Z,10.68
2023-02-24T02:16:54.487Z,12.23
2023-02-24T02:19:33.873Z,10.82
2023-02-24T02:22:23.437Z,8.27
2023-02-24T02:25:01.514Z,10.32
2023-02-24T02:27:39.969Z,10.23
2023-02-24T02:30:19.516Z,12.20
2023-02-24T02:33:39.433Z,10.93
2023-02-24T02:36:22.267Z,12.23
2023-02-24T02:38:57.596Z,11.05
2023-02-24T02:42:04.644Z,9.63
2023-02-24T02:44:44.975Z,12.00
2023-02-24T02:47:19.272Z,7.38
2023-02-24T02:49:51.934Z,10.27
2023-02-24T02:52:28.578Z,12.50
2023-02-24T02:55:02.908Z,12.82
2023-02-24T02:57:31.085Z,10.65
2023-02-24T03:00:21.263Z,11.48
2023-02-24T03:02:52.066Z,11.18
2023-02-24T03:05:29.574Z,13.18
2023-02-24T03:07:59.095Z,10.77
2023-02-24T03:10:27.878Z,12.07
2023-02-24T03:12:58.368Z,12.35
2023-02-24T03:15:28.014Z,13.40
2023-02-24T03:18:10.092Z,10.93
2023-02-24T03:20:43.031Z,12.05
2023-02-24T03:23:16.756Z,11.90
2023-02-24T03:25:51.800Z,13.80
2023-02-24T03:28:24.824Z,13.90
2023-02-24T03:31:03.547Z,13.82
2023-02-24T03:33:36.892Z,10.57
2023-02-24T03:36:03.748Z,10.38
2023-02-24T03:38:32.938Z,18.73
2023-02-24T03:40:59.782Z,10.93
2023-02-24T03:43:31.630Z,13.35
2023-02-24T03:45:59.191Z,11.40
2023-02-24T03:48:27.737Z,10.73
2023-02-24T03:50:54.770Z,13.35
2023-02-24T03:53:42.337Z,11.10
2023-02-24T03:56:29.278Z,14.43
2023-02-24T03:59:25.128Z,9.32
2023-02-24T04:02:02.411Z,14.25
2023-02-24T04:04:35.039Z,12.88
2023-02-24T04:07:14.906Z,11.25
2023-02-24T04:09:50.197Z,14.70
2023-02-24T04:12:28.766Z,9.37
2023-02-24T04:15:08.391Z,11.07
2023-02-24T04:17:45.711Z,10.88
2023-02-24T04:20:20.262Z,11.65
2023-02-24T04:22:56.954Z,8.48
2023-02-24T04:25:25.778Z,10.40
2023-02-24T04:28:01.130Z,12.23
2023-02-24T04:30:32.001Z,10.57
2023-02-24T04:32:58.473Z,10.65
2023-02-24T04:35:26.819Z,15.63
2023-02-24T04:37:53.718Z,12.60
2023-02-24T04:40:22.227Z,13.63
2023-02-24T04:42:51.703Z,10.90
2023-02-24T04:45:24.269Z,12.95
2023-02-24T04:47:56.057Z,10.27
2023-02-24T04:50:25.316Z,9.55
2023-02-24T04:52:52.212Z,11.95
2023-02-24T04:55:22.286Z,10.02
2023-02-24T04:57:58.214Z,14.48
2023-02-24T05:00:26.712Z,15.23
2023-02-24T05:02:58.972Z,16.42
2023-02-24T05:05:25.764Z,20.55
2023-02-24T05:07:54.487Z,14.43
2023-02-24T05:10:27.951Z,12.23
2023-02-24T05:12:58.076Z,14.50
2023-02-24T05:15:31.060Z,11.52
2023-02-24T05:18:07.665Z,12.30
2023-02-24T05:20:58.176Z,12.25
2023-02-24T05:23:36.605Z,16.38
2023-02-24T05:26:08.913Z,13.27
2023-02-24T05:28:37.356Z,12.95
2023-02-24T05:31:10.549Z,13.90
2023-02-24T05:33:38.774Z,12.80
2023-02-24T05:36:08.557Z,13.90
2023-02-24T05:38:37.948Z,12.73
2023-02-24T05:41:11.896Z,10.45
2023-02-24T05:43:39.166Z,10.30
2023-02-24T05:46:07.058Z,15.13
2023-02-24T05:48:35.270Z,10.23
2023-02-24T05:51:05.261Z,19.95
2023-02-24T05:53:31.791Z,12.82
2023-02-24T05:56:01.078Z,15.40
2023-02-24T05:58:29.087Z,12.13
2023-02-24T06:00:56.237Z,13.77
2023-02-24T06:03:30.898Z,12.52
2023-02-24T06:06:05.492Z,9.90
2023-02-24T06:08:42.109Z,12.02
2023-02-24T06:11:10.392Z,9.90
2023-02-24T06:13:37.951Z,12.10
2023-02-24T06:16:06.775Z,10.52
2023-02-24T06:18:34.051Z,13.18
2023-02-24T06:21:04.280Z,17.35
2023-02-24T06:23:30.676Z,18.08
2023-02-24T06:26:02.166Z,23.48
2023-02-24T06:28:28.544Z,13.98
2023-02-24T06:30:56.170Z,14.05
2023-02-24T06:33:25.825Z,14.77
2023-02-24T06:35:53.482Z,13.55
2023-02-24T06:38:19.933Z,14.50
2023-02-24T06:40:47.460Z,15.38
2023-02-24T06:43:13.850Z,14.23
2023-02-24T06:45:40.374Z,15.57
2023-02-24T06:48:09.007Z,17.25
2023-02-24T06:50:35.392Z,22.02
2023-02-24T06:53:02.625Z,16.60
2023-02-24T06:55:29.415Z,12.93
2023-02-24T06:57:58.954Z,12.77
2023-02-24T07:00:37.042Z,13.00
2023-02-24T07:03:15.851Z,13.88
2023-02-24T07:05:50.061Z,23.77
2023-02-24T07:08:18.090Z,12.82
2023-02-24T07:10:44.950Z,17.63
2023-02-24T07:13:13.510Z,12.68
2023-02-24T07:15:39.924Z,10.75
2023-02-24T07:18:14.699Z,15.55
2023-02-24T07:20:45.527Z,11.75
2023-02-24T07:23:14.065Z,14.63
2023-02-24T07:25:41.450Z,11.73
2023-02-24T07:28:08.017Z,12.38
2023-02-24T07:30:34.800Z,18.40
2023-02-24T07:33:03.749Z,14.73
2023-02-24T07:35:30.794Z,14.07
2023-02-24T07:38:02.028Z,18.30
2023-02-24T07:40:33.493Z,15.60
2023-02-24T07:43:01.467Z,21.58
2023-02-24T07:45:29.614Z,16.83
2023-02-24T07:48:01.393Z,15.00
2023-02-24T07:50:28.170Z,15.00
2023-02-24T07:52:54.566Z,15.68
2023-02-24T07:55:21.617Z,17.00
2023-02-24T07:57:48.421Z,18.20
2023-02-24T08:00:19.850Z,18.70
2023-02-24T08:02:49.033Z,17.10
2023-02-24T08:05:18.666Z,18.92
2023-02-24T08:07:49.820Z,14.13
2023-02-24T08:10:27.077Z,18.02
2023-02-24T08:12:56.135Z,15.07
2023-02-24T08:15:25.158Z,13.15
2023-02-24T08:17:53.678Z,12.18
2023-02-24T08:20:21.931Z,12.65
2023-02-24T08:22:53.597Z,12.20
2023-02-24T08:25:24.161Z,16.33
2023-02-24T08:28:08.972Z,12.02
2023-02-24T08:30:39.259Z,14.80
2023-02-24T08:33:08.959Z,17.55
2023-02-24T08:35:37.541Z,14.45
2023-02-24T08:38:10.556Z,13.05
2023-02-24T08:40:50.008Z,11.27
2023-02-24T08:43:42.124Z,15.82
2023-02-24T08:46:18.185Z,20.05
2023-02-24T08:51:17.930Z,14.55
2023-02-24T08:53:46.768Z,14.88
2023-02-24T08:56:23.845Z,13.88
2023-02-24T08:59:05.164Z,13.75
2023-02-24T09:01:38.060Z,17.08
2023-02-24T09:04:13.202Z,15.30
2023-02-24T09:06:45.576Z,16.60
2023-02-24T09:09:23.049Z,17.45
2023-02-24T09:11:57.228Z,24.02
2023-02-24T09:14:29.922Z,18.35
2023-02-24T09:17:02.234Z,16.95
2023-02-24T09:19:46.425Z,13.95
2023-02-24T09:22:21.268Z,15.25
2023-02-24T09:24:51.141Z,13.95
2023-02-24T09:27:17.657Z,17.63
2023-02-24T09:29:49.275Z,15.05
2023-02-24T09:32:16.212Z,14.90
2023-02-24T09:34:47.198Z,10.35
2023-02-24T09:37:24.861Z,14.05
2023-02-24T09:39:55.921Z,10.88
2023-02-24T09:42:46.305Z,12.13
2023-02-24T09:45:33.358Z,11.18
2023-02-24T09:48:16.709Z,9.40
2023-02-24T09:51:03.419Z,18.52
2023-02-24T09:53:42.339Z,12.23
2023-02-24T09:56:22.108Z,10.70
2023-02-24T09:59:27.137Z,12.38
2023-02-24T10:02:27.302Z,14.68
2023-02-24T10:05:15.447Z,15.18
2023-02-24T10:07:43.913Z,12.88
2023-02-24T10:10:29.553Z,8.55
2023-02-24T10:12:58.868Z,15.35
2023-02-24T10:15:58.985Z,13.25
2023-02-24T10:19:01.111Z,13.70
2023-02-24T10:21:48.423Z,10.32
2023-02-24T10:24:29.313Z,14.25
2023-02-24T10:27:08.728Z,14.63
2023-02-24T10:29:45.483Z,10.10
2023-02-24T10:34:52.051Z,14.30
2023-02-24T10:37:28.264Z,15.40
2023-02-24T10:40:00.963Z,15.55
2023-02-24T10:42:32.544Z,13.70
2023-02-24T10:45:17.344Z,16.38
2023-02-24T10:47:50.061Z,15.93
2023-02-24T10:50:24.267Z,12.90
2023-02-24T10:52:57.140Z,14.55
2023-02-24T10:55:44.783Z,13.63
2023-02-24T10:58:27.750Z,15.55
2023-02-24T11:01:06.824Z,15.25
2023-02-24T11:03:41.789Z,12.90
2023-02-24T11:06:48.909Z,10.50
2023-02-24T11:09:21.974Z,18.47
2023-02-24T11:12:20.827Z,14.73
2023-02-24T11:15:12.779Z,13.27
2023-02-24T11:17:57.036Z,14.80
2023-02-24T11:20:46.423Z,16.73
2023-02-24T11:23:19.866Z,13.02
2023-02-24T11:25:54.052Z,13.60
2023-02-24T11:28:58.960Z,20.08
2023-02-24T11:31:40.338Z,12.88
2023-02-24T11:34:17.030Z,15.60
2023-02-24T11:37:14.534Z,15.73
2023-02-24T11:42:39.095Z,12.77
2023-02-24T11:45:29.942Z,9.27
2023-02-24T11:48:15.952Z,13.43
2023-02-24T11:50:58.234Z,12.30
2023-02-24T11:53:46.607Z,13.60
2023-02-24T11:56:22.174Z,12.55
2023-02-24T11:59:16.050Z,12.77
2023-02-24T12:01:50.727Z,13.63
2023-02-24T12:04:46.301Z,12.90
2023-02-24T12:07:20.375Z,12.32
2023-02-24T12:10:17.121Z,9.85
2023-02-24T12:13:02.732Z,17.15
2023-02-24T12:15:34.156Z,11.48
2023-02-24T12:18:20.026Z,13.48
2023-02-24T12:21:05.519Z,10.82
2023-02-24T12:23:39.248Z,13.70
2023-02-24T12:26:17.807Z,17.08
2023-02-24T12:29:08.005Z,17.48
2023-02-24T12:31:53.463Z,11.55
2023-02-24T12:34:30.164Z,12.13
2023-02-24T12:37:16.629Z,16.52
2023-02-24T12:39:56.977Z,14.32
2023-02-24T12:42:52.062Z,21.90
2023-02-24T12:45:43.310Z,14.75
2023-02-24T12:48:47.702Z,14.38
2023-02-24T12:51:28.034Z,14.52
2023-02-24T12:54:11.990Z,14.80
2023-02-24T12:56:49.666Z,16.75
2023-02-24T12:59:22.497Z,17.73
2023-02-24T13:01:57.995Z,15.23
2023-02-24T13:05:03.128Z,19.65
2023-02-24T13:07:49.831Z,18.67
2023-02-24T13:10:47.987Z,19.77
2023-02-24T13:13:31.477Z,21.27
2023-02-24T13:16:02.350Z,19.50
2023-02-24T13:18:31.349Z,15.77
2023-02-24T13:21:30.417Z,16.58
2023-02-24T13:24:02.211Z,21.10
2023-02-24T13:26:31.626Z,22.15
2023-02-24T13:29:02.761Z,16.98
2023-02-24T13:31:52.075Z,18.92
2023-02-24T13:34:21.632Z,18.50
2023-02-24T13:36:49.789Z,19.58
2023-02-24T13:39:45.458Z,16.30
2023-02-24T13:42:22.764Z,17.38
2023-02-24T13:45:01.690Z,16.13
2023-02-24T13:47:49.267Z,22.15
2023-02-24T13:50:35.172Z,15.88
2023-02-24T13:53:33.766Z,19.83
2023-02-24T13:56:04.928Z,15.80
2023-02-24T13:58:50.328Z,19.67
2023-02-24T14:01:18.638Z,13.13
2023-02-24T14:04:15.505Z,12.93
2023-02-24T14:06:48.662Z,22.63
2023-02-24T14:09:21.158Z,21.05
2023-02-24T14:11:52.781Z,24.73
2023-02-24T14:14:22.525Z,19.92
2023-02-24T14:16:50.792Z,18.55
2023-02-24T14:19:17.650Z,18.50
2023-02-24T14:21:55.999Z,18.20
2023-02-24T14:24:26.738Z,17.63
2023-02-24T14:26:56.020Z,15.13
2023-02-24T14:29:26.286Z,17.20
2023-02-24T14:31:55.172Z,18.08
2023-02-24T14:34:24.934Z,23.00
2023-02-24T14:36:55.108Z,17.67
2023-02-24T14:39:30.797Z,18.73
2023-02-24T14:42:11.688Z,22.27
2023-02-24T14:44:50.812Z,15.68
2023-02-24T14:47:19.443Z,19.33
2023-02-24T14:50:04.404Z,21.90
2023-02-24T14:52:38.451Z,20.00
2023-02-24T14:55:24.073Z,19.42
2023-02-24T14:58:00.986Z,17.98
2023-02-24T15:00:32.965Z,20.77
2023-02-24T15:03:29.436Z,26.40
2023-02-24T15:06:01.414Z,24.20
2023-02-24T15:08:46.157Z,19.33
2023-02-24T15:11:21.965Z,17.90
2023-02-24T15:13:54.953Z,20.50
2023-02-24T15:16:26.890Z,20.58
2023-02-24T15:18:57.363Z,19.92
2023-02-24T15:21:31.301Z,20.02
2023-02-24T15:24:00.477Z,20.92
2023-02-24T15:26:32.948Z,25.23
2023-02-24T15:29:20.824Z,20.77
2023-02-24T15:31:48.541Z,23.30
2023-02-24T15:34:24.425Z,27.92
2023-02-24T15:36:54.247Z,24.63
2023-02-24T15:39:28.456Z,18.10
2023-02-24T15:42:08.030Z,15.85
2023-02-24T15:44:35.762Z,17.67
2023-02-24T15:47:28.882Z,16.25
2023-02-24T15:49:55.602Z,19.90
2023-02-24T15:52:29.545Z,22.77
2023-02-24T15:54:57.914Z,19.70
2023-02-24T15:57:25.034Z,17.63
2023-02-24T15:59:51.892Z,15.00
2023-02-24T16:02:20.717Z,23.77
2023-02-24T16:04:49.347Z,23.90
2023-02-24T16:07:26.926Z,24.38
2023-02-24T16:09:54.828Z,21.17
2023-02-24T16:12:31.808Z,20.02
2023-02-24T16:15:03.844Z,17.33
2023-02-24T16:17:35.023Z,19.38
2023-02-24T16:20:02.502Z,17.23
2023-02-24T16:22:30.028Z,20.30
2023-02-24T16:24:56.593Z,22.48
2023-02-24T16:27:25.950Z,16.83
2023-02-24T16:29:53.084Z,16.60
2023-02-24T16:32:22.129Z,13.35
2023-02-24T16:34:49.642Z,15.48
2023-02-24T16:37:29.111Z,19.02
2023-02-24T16:39:55.773Z,16.85
2023-02-24T16:42:30.976Z,16.67
2023-02-24T16:44:57.364Z,16.98
2023-02-24T16:47:25.200Z,17.48
2023-02-24T16:49:55.404Z,20.63
2023-02-24T16:52:24.712Z,20.42
2023-02-24T16:54:51.181Z,20.65
2023-02-24T16:57:17.580Z,24.55
2023-02-24T16:59:43.969Z,20.00
2023-02-24T17:02:20.009Z,23.13
2023-02-24T17:04:46.401Z,23.92
2023-02-24T17:07:14.486Z,23.50
2023-02-24T17:09:41.100Z,18.83
2023-02-24T17:12:08.438Z,23.30
2023-02-24T17:14:34.839Z,20.83
2023-02-24T17:17:01.364Z,15.95
2023-02-24T17:19:27.786Z,19.20
2023-02-24T17:21:54.169Z,19.95
2023-02-24T17:24:20.813Z,25.10
2023-02-24T17:26:47.310Z,24.98
2023-02-24T17:29:14.633Z,27.90
2023-02-24T17:31:42.170Z,23.60
2023-02-24T17:34:09.346Z,23.30
2023-02-24T17:36:35.858Z,23.15
2023-02-24T17:39:02.288Z,32.53
2023-02-24T17:41:28.732Z,22.98
2023-02-24T17:43:57.144Z,24.08
2023-02-24T17:46:23.882Z,26.65
2023-02-24T17:48:51.610Z,25.55
2023-02-24T17:51:19.679Z,26.52
2023-02-24T17:53:46.334Z,28.02
2023-02-24T17:56:12.791Z,27.90
2023-02-24T17:58:40.219Z,26.58
2023-02-24T18:01:06.891Z,24.88
2023-02-24T18:03:35.760Z,20.42
2023-02-24T18:06:05.958Z,23.75
2023-02-24T18:08:34.219Z,22.15
2023-02-24T18:11:01.760Z,19.33
2023-02-24T18:13:29.808Z,22.27
2023-02-24T18:15:56.506Z,18.20
2023-02-24T18:18:24.363Z,31.73
2023-02-24T18:20:51.133Z,19.25
2023-02-24T18:23:17.653Z,19.98
2023-02-24T18:25:44.440Z,21.45
2023-02-24T18:28:11.854Z,19.58
2023-02-24T18:30:39.286Z,19.52
2023-02-24T18:33:05.880Z,20.45
2023-02-24T18:35:32.432Z,21.77
2023-02-24T18:37:58.805Z,22.63
2023-02-24T18:40:26.793Z,21.98
2023-02-24T18:42:53.270Z,18.45
2023-02-24T18:45:25.609Z,24.15
2023-02-24T18:48:01.839Z,20.10
2023-02-24T18:50:35.529Z,22.55
2023-02-24T18:53:02.998Z,17.13
2023-02-24T18:55:36.604Z,22.02
2023-02-24T18:58:02.993Z,20.52
2023-02-24T19:00:29.363Z,17.35
2023-02-24T19:03:09.301Z,22.08
2023-02-24T19:05:38.801Z,19.02
2023-02-24T19:08:05.769Z,21.80
2023-02-24T19:10:32.272Z,19.23
2023-02-24T19:12:58.796Z,21.20
2023-02-24T19:15:48.266Z,20.08
2023-02-24T19:18:16.891Z,17.73
2023-02-24T19:20:44.147Z,21.38
2023-02-24T19:23:11.078Z,29.67
2023-02-24T19:25:37.539Z,23.40
2023-02-24T19:28:04.020Z,26.67
2023-02-24T19:30:31.777Z,21.45
2023-02-24T19:32:59.250Z,27.63
2023-02-24T19:35:26.277Z,24.13
2023-02-24T19:37:52.743Z,27.48
2023-02-24T19:40:30.481Z,22.48
2023-02-24T19:42:56.916Z,24.42
2023-02-24T19:45:23.313Z,27.30
2023-02-24T19:47:49.721Z,28.58
2023-02-24T19:50:16.809Z,27.85
2023-02-24T19:52:43.177Z,35.33
2023-02-24T19:55:12.612Z,24.45
2023-02-24T19:57:55.708Z,26.83
2023-02-24T20:00:23.403Z,19.63
2023-02-24T20:02:50.282Z,21.48
2023-02-24T20:05:19.197Z,22.60
2023-02-24T20:07:46.282Z,25.00
2023-02-24T20:10:17.316Z,20.77
2023-02-24T20:12:44.857Z,20.15
2023-02-24T20:15:11.565Z,24.73
2023-02-24T20:17:38.025Z,22.98
2023-02-24T20:20:04.891Z,20.25
2023-02-24T20:22:31.438Z,26.58
2023-02-24T20:24:57.836Z,13.45
2023-02-24T20:27:24.243Z,21.30
2023-02-24T20:29:53.569Z,14.80
2023-02-24T20:32:20.246Z,17.08
2023-02-24T20:34:46.718Z,14.38
2023-02-24T20:37:13.149Z,13.93
2023-02-24T20:39:40.851Z,16.27
2023-02-24T20:42:07.236Z,24.02
2023-02-24T20:44:33.713Z,13.05
2023-02-24T20:47:00.247Z,14.82
2023-02-24T20:49:27.224Z,9.38
2023-02-24T20:51:53.703Z,16.52
2023-02-24T20:54:20.240Z,11.70
2023-02-24T20:56:47.017Z,13.07
2023-02-24T20:59:19.035Z,18.20
2023-02-24T21:01:47.820Z,11.48
2023-02-24T21:04:17.183Z,13.95
2023-02-24T21:06:43.678Z,16.23
2023-02-24T21:09:11.945Z,13.98
2023-02-24T21:11:38.505Z,18.35
2023-02-24T21:14:05.969Z,11.00
2023-02-24T21:16:35.256Z,16.30
2023-02-24T21:19:01.838Z,10.63
2023-02-24T21:21:28.388Z,12.50
2023-02-24T21:23:55.825Z,12.18
2023-02-24T21:26:24.649Z,19.33
2023-02-24T21:28:57.162Z,11.93
2023-02-24T21:31:24.219Z,12.80
2023-02-24T21:33:52.283Z,14.57
2023-02-24T21:36:27.595Z,18.85
2023-02-24T21:38:54.748Z,11.25
2023-02-24T21:41:21.595Z,9.55
2023-02-24T21:43:51.050Z,11.73
2023-02-24T21:46:19.449Z,10.75
2023-02-24T21:48:45.993Z,11.93
2023-02-24T21:51:13.759Z,7.97
2023-02-24T21:53:43.437Z,12.57
2023-02-24T21:56:19.921Z,11.13
2023-02-24T21:58:53.591Z,9.60
2023-02-24T22:01:26.896Z,12.02
2023-02-24T22:03:54.910Z,6.50
2023-02-24T22:06:22.276Z,6.03
2023-02-24T22:08:48.952Z,6.57
2023-02-24T22:11:17.238Z,7.10
2023-02-24T22:13:45.358Z,7.18
2023-02-24T22:16:15.997Z,5.90
2023-02-24T22:18:51.185Z,6.07
2023-02-24T22:21:24.128Z,5.00
2023-02-24T22:23:52.826Z,3.70
2023-02-24T22:26:21.163Z,3.03
2023-02-24T22:28:47.855Z,6.15
2023-02-24T22:31:17.117Z,5.10
2023-02-24T22:33:44.734Z,5.55
2023-02-24T22:36:25.563Z,6.05
2023-02-24T22:38:52.792Z,6.28
2023-02-24T22:41:22.264Z,5.15
2023-02-24T22:43:49.682Z,4.95
2023-02-24T22:46:22.928Z,4.90
2023-02-24T22:48:50.353Z,5.35
2023-02-24T22:51:18.052Z,6.30
2023-02-24T22:53:47.220Z,6.30
2023-02-24T22:56:19.891Z,3.78
2023-02-24T22:58:46.524Z,4.40
2023-02-24T23:01:22.330Z,4.70
2023-02-24T23:03:49.285Z,4.45
2023-02-24T23:06:18.052Z,6.35
2023-02-24T23:08:47.026Z,2.90
2023-02-24T23:11:29.394Z,3.15
2023-02-24T23:13:57.620Z,3.92
2023-02-24T23:16:27.424Z,3.92
2023-02-24T23:18:56.234Z,3.40
2023-02-24T23:21:31.703Z,3.90
2023-02-24T23:23:58.069Z,3.75
2023-02-24T23:26:34.157Z,5.70
2023-02-24T23:29:01.083Z,6.35
2023-02-24T23:31:30.251Z,5.78
2023-02-24T23:33:59.310Z,6.97
2023-02-24T23:36:26.219Z,6.93
2023-02-24T23:38:52.879Z,8.00
2023-02-24T23:41:19.606Z,7.68
2023-02-24T23:43:46.014Z,7.55
2023-02-24T23:46:13.519Z,9.65
2023-02-24T23:48:41.854Z,7.30
2023-02-24T23:51:12.482Z,8.30
2023-02-24T23:53:44.622Z,10.05
2023-02-24T23:56:20.351Z,9.02
2023-02-24T23:58:51.641Z,10.95
